Huvudsida
METAR-TAF:

METAR-TAF

Flygplatser :

Catania-Fontanarossas flygplats

Catania, Italien

latitud: 37-28N, longitud: 015-03E, höjd: 11 m

Aktuellt väderrapport

Denna rapport gjordes för 20 minuter sedan, klockan 20:20 UTC
Vind 9 kt från väst
Temperatur 13°C
Fuktighet 82%
Tryck 1020 hPa
Sikt 10 km eller mer
Brutna moln på en höjd av 11000 ft

METAR: LICC 262020Z 28009KT 9999 BKN110 13/10 Q1020

Tid: 21:40 (20:40 UTC)

Väderprognos

Denna rapport gjordes för 3 timmar och 40 minuter sedan, klockan 17:00 UTC
Prognos gäller från 26 kl. 18 UTC till 27 kl. 18 UTC
Vind 6 kt från väst/sydväst
Sikt 10 km eller mer
Spridda moln på en höjd av 3000 ft
Temporärt
från 27 kl. 00 UTC till 27 kl. 08 UTC
Sikt: 3000 m
fuktdis
Blir
från 27 kl. 08 UTC till 27 kl. 10 UTC
Vind 10 kt från ost

TAF: LICC 261700Z 2618/2718 25006KT 9999 SCT030 TEMPO 2700/2708 3000 BR BECMG 2708/2710 10010KT

Aktuella väderrapporter och prognoser från 4000 flygplatser (METAR- och TAF-rapporter).

De tillgängliga stationerna syns som gula och röda prickar på kartan.

För musen över prickarna för att se namnen på stationerna.

Klicka sedan för att få väderrapporter och prognoser.

För att ändra kartan: Klicka på de gröna knapparna med ett svart kors på för att zooma in; den gröna knappen med ett streck på för att zooma ut; eller på de gröna pilarna för angränsande kartor.


METAR-TAF: